Time;durP1;ratioP1;P1;durP2;ratioP2;P2;SDS_P1;SDS_P2;PMS_P1;PMS_P2;Temp;Humidity;BMP_temperature;BMP_pressure;BME280_temperature;BME280_humidity;BME280_pressure;Samples;Min_cycle;Max_cycle;Signal;HPM_P1;HPM_P2
2024/04/05 00:00:48;;;;;;;27.02;4.60;;;11.80;99.90;;;;;;5038582;28;20047;-72
2024/04/05 00:03:14;;;;;;;25.70;4.75;;;11.80;99.90;;;;;;5044420;28;20133;-72
2024/04/05 00:05:41;;;;;;;23.30;5.05;;;11.80;99.90;;;;;;5044901;28;20127;-73
2024/04/05 00:08:07;;;;;;;29.45;4.75;;;11.80;99.90;;;;;;5042618;28;20045;-73
2024/04/05 00:10:32;;;;;;;30.45;4.80;;;11.80;99.90;;;;;;5045379;28;20334;-73
2024/04/05 00:12:58;;;;;;;26.73;4.55;;;11.80;99.90;;;;;;5045331;28;20043;-74
2024/04/05 00:15:24;;;;;;;22.42;4.93;;;11.80;99.90;;;;;;5043536;28;20219;-73
2024/04/05 00:17:49;;;;;;;21.70;5.60;;;11.80;99.90;;;;;;5040300;28;20429;-73
2024/04/05 00:20:15;;;;;;;24.52;4.85;;;11.80;99.90;;;;;;5041535;28;20037;-73
2024/04/05 00:22:41;;;;;;;23.60;4.35;;;11.80;99.90;;;;;;5041311;28;20080;-74
2024/04/05 00:25:06;;;;;;;27.40;3.92;;;11.70;99.90;;;;;;5034970;28;20046;-73
2024/04/05 00:27:32;;;;;;;26.08;4.75;;;11.70;99.90;;;;;;5029452;28;20041;-74
2024/04/05 00:30:01;;;;;;;29.67;5.22;;;11.60;99.90;;;;;;5044984;28;20132;-74
2024/04/05 00:32:26;;;;;;;24.70;4.53;;;11.60;99.90;;;;;;5047212;28;20695;-73
2024/04/05 00:34:52;;;;;;;23.00;4.88;;;11.60;99.90;;;;;;5042362;28;20033;-73
2024/04/05 00:37:18;;;;;;;21.08;4.40;;;11.60;99.90;;;;;;5042183;28;20041;-73
2024/04/05 00:39:44;;;;;;;20.13;4.00;;;11.60;99.90;;;;;;5039966;28;20033;-73
2024/04/05 00:42:09;;;;;;;26.70;5.05;;;11.50;99.90;;;;;;5045463;28;20102;-73
2024/04/05 00:44:35;;;;;;;21.45;4.63;;;11.50;99.90;;;;;;5039633;28;20041;-73
2024/04/05 00:47:01;;;;;;;26.33;4.97;;;11.50;99.90;;;;;;5040055;28;20044;-73
2024/04/05 00:49:27;;;;;;;28.02;5.30;;;11.50;99.90;;;;;;5042604;28;20033;-74
2024/04/05 00:51:55;;;;;;;24.48;4.18;;;11.50;99.90;;;;;;5045257;28;20489;-73
2024/04/05 00:54:22;;;;;;;23.65;4.05;;;11.50;99.90;;;;;;5034600;28;20041;-73
2024/04/05 00:56:47;;;;;;;28.63;4.95;;;11.40;99.90;;;;;;5039379;28;20485;-72
2024/04/05 00:59:15;;;;;;;25.85;4.50;;;11.40;99.90;;;;;;5024317;28;20171;-73
2024/04/05 01:01:41;;;;;;;23.17;4.00;;;11.40;99.90;;;;;;5038096;28;20374;-73
2024/04/05 01:04:07;;;;;;;27.95;4.78;;;11.40;99.90;;;;;;5037421;28;20057;-73
2024/04/05 01:06:33;;;;;;;26.02;4.80;;;11.30;99.90;;;;;;5045707;28;20037;-74
2024/04/05 01:08:59;;;;;;;20.90;4.45;;;11.30;99.90;;;;;;5040200;28;20041;-74
2024/04/05 01:11:25;;;;;;;29.10;4.50;;;11.30;99.90;;;;;;5042597;28;20041;-73
2024/04/05 01:13:52;;;;;;;24.17;4.57;;;11.20;99.90;;;;;;5037060;28;20509;-73
2024/04/05 01:16:18;;;;;;;32.60;6.18;;;11.20;99.90;;;;;;5040894;28;20102;-73
2024/04/05 01:18:44;;;;;;;25.67;4.25;;;11.20;99.90;;;;;;5035794;28;20041;-73
2024/04/05 01:21:10;;;;;;;23.38;4.47;;;11.10;99.90;;;;;;5040190;28;20120;-73
2024/04/05 01:23:43;;;;;;;29.67;5.25;;;11.10;99.90;;;;;;5041263;28;20040;-73
2024/04/05 01:26:09;;;;;;;26.77;5.57;;;11.00;99.90;;;;;;5040858;28;20490;-73
2024/04/05 01:28:35;;;;;;;26.10;4.68;;;11.10;99.90;;;;;;5045649;28;20037;-73
2024/04/05 01:31:00;;;;;;;29.45;5.35;;;11.10;99.90;;;;;;5044229;28;20302;-73
2024/04/05 01:33:26;;;;;;;29.10;4.35;;;11.10;99.90;;;;;;5040343;28;20041;-74
2024/04/05 01:35:52;;;;;;;21.10;3.92;;;11.10;99.90;;;;;;5043131;28;20698;-73
2024/04/05 01:38:18;;;;;;;28.15;4.38;;;11.20;99.90;;;;;;5041258;28;20542;-73
2024/04/05 01:40:43;;;;;;;24.02;4.22;;;11.10;99.90;;;;;;5039329;28;20120;-72
2024/04/05 01:43:09;;;;;;;28.98;5.57;;;11.20;99.90;;;;;;5038099;28;20417;-73
2024/04/05 01:45:35;;;;;;;23.02;4.43;;;11.20;99.90;;;;;;5041297;28;20377;-74
2024/04/05 01:48:01;;;;;;;26.67;4.60;;;11.20;99.90;;;;;;5041012;28;20094;-73
2024/04/05 01:50:27;;;;;;;26.92;5.70;;;11.20;99.90;;;;;;5043334;28;20399;-73
2024/04/05 01:52:52;;;;;;;28.35;5.68;;;11.20;99.90;;;;;;5038051;28;20108;-73
2024/04/05 01:55:18;;;;;;;28.75;4.90;;;11.20;99.90;;;;;;5040847;28;20350;-73
2024/04/05 01:57:44;;;;;;;26.00;5.22;;;11.20;99.90;;;;;;5043144;28;20499;-74
2024/04/05 02:00:10;;;;;;;27.75;5.10;;;11.20;99.90;;;;;;5040638;28;20087;-73
2024/04/05 02:02:36;;;;;;;25.58;4.75;;;11.30;99.90;;;;;;5038855;28;20057;-74
2024/04/05 02:05:02;;;;;;;27.83;5.15;;;11.20;99.90;;;;;;5048676;28;20189;-73
2024/04/05 02:07:28;;;;;;;25.50;4.68;;;11.30;99.90;;;;;;5037874;28;20053;-73
2024/04/05 02:09:54;;;;;;;32.25;5.15;;;11.30;99.90;;;;;;5045512;28;20050;-74
2024/04/05 02:12:21;;;;;;;27.15;4.97;;;11.30;99.90;;;;;;5035610;28;20164;-73
2024/04/05 02:14:47;;;;;;;26.50;5.30;;;11.20;99.90;;;;;;5035711;28;20041;-73
2024/04/05 02:17:13;;;;;;;26.23;5.32;;;11.20;99.90;;;;;;5037750;28;20500;-73
2024/04/05 02:19:39;;;;;;;26.52;5.28;;;11.20;99.90;;;;;;5033718;28;20434;-74
2024/04/05 02:22:08;;;;;;;25.20;4.45;;;11.20;99.90;;;;;;5044791;28;20033;-74
2024/04/05 02:24:34;;;;;;;31.85;4.97;;;11.20;99.90;;;;;;5045380;28;20045;-72
2024/04/05 02:27:01;;;;;;;21.27;4.07;;;11.20;99.90;;;;;;5043249;28;20048;-73
2024/04/05 02:29:27;;;;;;;27.75;4.70;;;11.20;99.90;;;;;;5046423;28;20037;-73
2024/04/05 02:31:52;;;;;;;31.52;6.18;;;11.30;99.90;;;;;;5042840;28;20503;-73
2024/04/05 02:34:18;;;;;;;29.83;5.85;;;11.30;99.90;;;;;;5044928;28;20037;-72
2024/04/05 02:36:44;;;;;;;28.30;5.95;;;11.30;99.90;;;;;;5046401;28;20188;-73
2024/04/05 02:39:10;;;;;;;29.40;4.90;;;11.30;99.90;;;;;;5045150;28;20067;-72
2024/04/05 02:41:36;;;;;;;33.17;5.90;;;11.40;99.90;;;;;;5042915;28;20036;-73
2024/04/05 02:44:02;;;;;;;26.38;4.82;;;11.40;99.90;;;;;;5040682;28;20055;-73
2024/04/05 02:46:28;;;;;;;30.77;5.35;;;11.40;99.90;;;;;;5044978;28;20041;-74
2024/04/05 02:48:54;;;;;;;28.23;5.18;;;11.50;99.90;;;;;;5041210;28;20100;-73
2024/04/05 02:51:20;;;;;;;29.90;5.53;;;11.50;99.90;;;;;;5039944;28;20063;-73
2024/04/05 02:53:46;;;;;;;27.42;5.10;;;11.50;99.90;;;;;;5048951;28;20033;-73
2024/04/05 02:56:13;;;;;;;32.30;6.15;;;11.60;99.90;;;;;;5046242;28;20036;-73
2024/04/05 02:58:39;;;;;;;25.17;4.55;;;11.60;99.90;;;;;;5063575;28;20036;-73
2024/04/05 03:01:05;;;;;;;27.75;4.72;;;11.60;99.90;;;;;;5044682;28;20037;-73
2024/04/05 03:03:31;;;;;;;32.22;8.25;;;11.60;99.90;;;;;;5031263;28;20056;-73
2024/04/05 03:05:56;;;;;;;31.90;5.55;;;11.50;99.90;;;;;;5042257;28;20139;-74
2024/04/05 03:08:23;;;;;;;33.28;5.88;;;11.50;99.90;;;;;;5045440;28;20037;-73
2024/04/05 03:10:49;;;;;;;28.73;5.68;;;11.50;99.90;;;;;;5049290;28;20041;-74
2024/04/05 03:13:14;;;;;;;33.42;5.32;;;11.50;99.90;;;;;;5043319;28;20080;-74
2024/04/05 03:15:40;;;;;;;26.40;5.45;;;11.40;99.90;;;;;;5041161;28;20217;-73
2024/04/05 03:18:06;;;;;;;26.17;5.13;;;11.50;99.90;;;;;;5041536;28;20666;-73
2024/04/05 03:20:32;;;;;;;24.42;5.10;;;11.50;99.90;;;;;;5044309;28;20033;-73
2024/04/05 03:22:57;;;;;;;26.38;5.15;;;11.50;99.90;;;;;;5041375;28;20500;-73
2024/04/05 03:25:23;;;;;;;28.38;4.90;;;11.50;99.90;;;;;;5043584;28;20705;-73
2024/04/05 03:27:49;;;;;;;25.38;4.32;;;11.50;99.90;;;;;;5042638;28;20045;-72
2024/04/05 03:30:15;;;;;;;22.88;4.60;;;11.60;99.90;;;;;;5027584;28;20042;-73
2024/04/05 03:32:41;;;;;;;26.02;4.60;;;11.60;99.90;;;;;;5040112;28;20069;-73
2024/04/05 03:35:07;;;;;;;22.60;4.50;;;11.60;99.90;;;;;;5039797;28;20053;-73
2024/04/05 03:37:33;;;;;;;24.23;4.60;;;11.60;99.90;;;;;;5059416;28;20408;-73
2024/04/05 03:40:00;;;;;;;21.10;4.55;;;11.60;99.90;;;;;;5043525;28;20045;-74
2024/04/05 03:42:25;;;;;;;18.15;3.80;;;11.60;99.90;;;;;;5044669;28;20053;-73
2024/04/05 03:44:51;;;;;;;28.65;4.55;;;11.70;99.90;;;;;;5043734;28;21361;-74
2024/04/05 03:47:17;;;;;;;24.98;4.55;;;11.60;99.90;;;;;;5034052;28;20046;-74
2024/04/05 03:49:43;;;;;;;28.10;4.55;;;11.60;99.90;;;;;;5045394;28;20439;-74
2024/04/05 03:52:08;;;;;;;27.75;3.55;;;11.70;99.90;;;;;;5042323;28;20045;-74
2024/04/05 03:54:34;;;;;;;22.67;4.43;;;11.60;99.90;;;;;;5038153;28;20037;-74
2024/04/05 03:57:00;;;;;;;24.38;3.80;;;11.60;99.90;;;;;;5037974;28;20056;-74
2024/04/05 03:59:26;;;;;;;20.33;3.90;;;11.60;99.90;;;;;;5042066;28;20464;-74
2024/04/05 04:01:52;;;;;;;22.45;4.68;;;11.60;99.90;;;;;;5038696;28;20069;-73
2024/04/05 04:04:18;;;;;;;22.85;4.22;;;11.60;99.90;;;;;;5038070;28;20061;-73
2024/04/05 04:06:44;;;;;;;26.13;4.20;;;11.60;99.90;;;;;;5041559;28;20696;-73
2024/04/05 04:09:11;;;;;;;22.75;4.00;;;11.60;99.90;;;;;;5038421;28;20116;-74
2024/04/05 04:11:37;;;;;;;21.77;3.58;;;11.60;99.90;;;;;;5040812;28;20120;-74
2024/04/05 04:14:03;;;;;;;19.48;3.70;;;11.60;99.90;;;;;;5042486;28;20048;-75
2024/04/05 04:16:30;;;;;;;32.38;4.15;;;11.60;99.90;;;;;;5040225;28;20103;-75
2024/04/05 04:18:55;;;;;;;23.63;4.35;;;11.50;99.90;;;;;;5044691;28;20033;-73
2024/04/05 04:21:24;;;;;;;28.38;4.05;;;11.40;99.90;;;;;;5056829;28;20063;-72
2024/04/05 04:23:53;;;;;;;22.73;4.47;;;11.40;99.90;;;;;;5065376;28;20345;-72
2024/04/05 04:26:22;;;;;;;24.77;3.90;;;11.30;99.90;;;;;;5055145;28;20040;-71
2024/04/05 04:28:49;;;;;;;25.80;4.00;;;11.30;99.90;;;;;;5059738;28;20056;-72
2024/04/05 04:31:16;;;;;;;23.90;4.50;;;11.20;99.90;;;;;;5059713;28;20037;-71
2024/04/05 04:33:43;;;;;;;30.67;6.07;;;11.20;99.90;;;;;;5060626;28;20029;-73
2024/04/05 04:36:08;;;;;;;31.92;4.30;;;11.20;99.90;;;;;;5058893;28;20040;-73
2024/04/05 04:38:34;;;;;;;23.73;4.38;;;11.20;99.90;;;;;;5057903;28;20039;-72
2024/04/05 04:41:00;;;;;;;23.95;4.47;;;11.20;99.90;;;;;;5061831;28;20044;-72
2024/04/05 04:43:26;;;;;;;25.52;4.85;;;11.20;99.90;;;;;;5058571;28;20489;-73
2024/04/05 04:45:52;;;;;;;21.25;4.03;;;11.20;99.90;;;;;;5061384;28;20041;-73
2024/04/05 04:48:18;;;;;;;23.65;4.45;;;11.20;99.90;;;;;;5053846;28;20045;-73
2024/04/05 04:50:44;;;;;;;29.15;4.70;;;11.20;99.90;;;;;;5057901;28;20040;-73
2024/04/05 04:53:12;;;;;;;26.75;4.93;;;11.20;99.90;;;;;;5056614;28;20037;-74
2024/04/05 04:55:41;;;;;;;25.75;4.57;;;11.20;99.90;;;;;;5052096;28;20052;-73
2024/04/05 04:58:07;;;;;;;23.05;5.00;;;11.20;99.90;;;;;;5054873;28;20045;-74
2024/04/05 05:00:32;;;;;;;28.05;5.45;;;11.20;99.90;;;;;;5073063;28;20072;-72
2024/04/05 05:02:58;;;;;;;23.40;4.82;;;11.20;99.90;;;;;;5065650;28;20453;-73
2024/04/05 05:05:24;;;;;;;27.98;4.53;;;11.20;99.90;;;;;;5061563;28;20059;-72
2024/04/05 05:07:49;;;;;;;33.30;5.50;;;11.30;99.90;;;;;;5057866;28;20260;-73
2024/04/05 05:10:15;;;;;;;29.13;4.95;;;11.20;99.90;;;;;;5053344;28;20056;-72
2024/04/05 05:12:41;;;;;;;35.90;4.53;;;11.20;99.90;;;;;;5054656;28;20105;-72
2024/04/05 05:15:06;;;;;;;22.67;4.65;;;11.20;99.90;;;;;;5051539;28;20033;-72
2024/04/05 05:17:33;;;;;;;33.53;4.72;;;11.20;99.90;;;;;;5055988;28;20104;-72
2024/04/05 05:19:59;;;;;;;31.98;4.93;;;11.20;99.90;;;;;;5052613;28;20477;-72
2024/04/05 05:22:25;;;;;;;34.88;5.07;;;11.20;99.90;;;;;;5054563;28;20041;-72
2024/04/05 05:24:51;;;;;;;31.58;4.95;;;11.20;99.90;;;;;;5059038;28;20048;-72
2024/04/05 05:27:16;;;;;;;27.55;4.60;;;11.20;99.90;;;;;;5050533;28;20109;-72
2024/04/05 05:29:43;;;;;;;30.08;5.35;;;11.30;99.90;;;;;;5047466;28;20077;-72
2024/04/05 05:32:11;;;;;;;33.60;5.13;;;11.20;99.90;;;;;;5045960;28;20129;-73
2024/04/05 05:34:38;;;;;;;30.80;4.65;;;11.20;99.90;;;;;;5046792;28;20041;-72
2024/04/05 05:37:04;;;;;;;28.02;4.75;;;11.20;99.90;;;;;;5052410;28;20048;-73
2024/04/05 05:39:29;;;;;;;28.63;4.97;;;11.20;99.90;;;;;;5045424;28;20049;-72
2024/04/05 05:41:55;;;;;;;31.33;5.35;;;11.20;99.90;;;;;;5052049;28;20037;-72
2024/04/05 05:44:21;;;;;;;31.85;7.32;;;11.20;99.90;;;;;;5045413;28;20071;-73
2024/04/05 05:46:46;;;;;;;27.50;5.05;;;11.30;99.90;;;;;;5050024;28;20041;-72
2024/04/05 05:49:12;;;;;;;26.33;5.03;;;11.30;99.90;;;;;;5048515;28;20120;-72
2024/04/05 05:51:38;;;;;;;23.55;4.60;;;11.30;99.90;;;;;;5044329;28;20068;-73
2024/04/05 05:54:04;;;;;;;31.50;5.60;;;11.30;99.90;;;;;;5038080;28;20159;-74
2024/04/05 05:56:30;;;;;;;27.50;5.43;;;11.30;99.90;;;;;;5020429;28;20047;-74
2024/04/05 05:58:55;;;;;;;26.65;5.40;;;11.30;99.90;;;;;;5040101;28;20036;-74
2024/04/05 06:01:21;;;;;;;27.80;5.32;;;11.40;99.90;;;;;;5038829;28;20041;-74
2024/04/05 06:03:47;;;;;;;31.88;4.97;;;11.40;99.90;;;;;;5042949;28;20048;-75
2024/04/05 06:06:13;;;;;;;23.63;5.18;;;11.50;99.90;;;;;;5040821;28;20200;-73
2024/04/05 06:08:40;;;;;;;24.85;5.65;;;11.50;99.90;;;;;;5040014;28;20488;-75
2024/04/05 06:11:05;;;;;;;24.67;5.05;;;11.50;99.90;;;;;;5038091;28;20037;-74
2024/04/05 06:13:31;;;;;;;25.70;5.18;;;11.50;99.90;;;;;;5037904;28;20405;-73
2024/04/05 06:15:58;;;;;;;22.20;4.53;;;11.60;99.90;;;;;;5045583;28;20040;-73
2024/04/05 06:18:28;;;;;;;25.83;5.72;;;11.60;99.90;;;;;;5043241;28;20072;-73
2024/04/05 06:20:55;;;;;;;24.85;5.75;;;11.60;99.90;;;;;;5043185;28;20044;-74
2024/04/05 06:23:25;;;;;;;25.85;4.95;;;11.60;99.90;;;;;;5035718;28;20566;-74
2024/04/05 06:25:58;;;;;;;26.48;6.32;;;11.70;99.90;;;;;;5045662;28;20052;-73
2024/04/05 06:28:23;;;;;;;22.50;4.75;;;11.70;99.90;;;;;;5057454;28;20045;-74
2024/04/05 06:30:49;;;;;;;23.70;4.93;;;11.80;99.90;;;;;;5046178;28;20522;-74
2024/04/05 06:33:15;;;;;;;29.95;5.07;;;11.80;99.90;;;;;;5038326;28;20095;-73
2024/04/05 06:35:41;;;;;;;29.08;6.82;;;11.90;99.90;;;;;;5039397;28;20129;-73
2024/04/05 06:38:08;;;;;;;31.27;4.97;;;11.90;99.90;;;;;;5041231;28;20088;-74
2024/04/05 06:40:39;;;;;;;22.25;4.45;;;11.90;99.90;;;;;;5041531;28;20068;-75
2024/04/05 06:43:08;;;;;;;28.00;4.72;;;12.00;99.90;;;;;;5039746;28;20439;-72
2024/04/05 06:45:34;;;;;;;22.48;4.97;;;12.00;99.90;;;;;;5038358;28;20051;-73
2024/04/05 06:48:01;;;;;;;27.50;6.50;;;12.10;99.90;;;;;;5038020;28;20581;-73
2024/04/05 06:50:31;;;;;;;24.38;4.50;;;12.10;99.90;;;;;;5040154;28;20048;-73
2024/04/05 06:53:00;;;;;;;21.38;4.25;;;12.10;99.90;;;;;;5040825;28;20029;-73
2024/04/05 06:55:26;;;;;;;24.52;4.65;;;12.20;99.90;;;;;;5043954;28;20073;-74
2024/04/05 06:57:52;;;;;;;19.20;4.50;;;12.20;99.90;;;;;;5041018;28;20045;-74
2024/04/05 07:00:19;;;;;;;21.77;5.00;;;12.30;99.90;;;;;;5040469;28;20103;-73
2024/04/05 07:02:45;;;;;;;26.77;5.25;;;12.30;99.90;;;;;;5039657;28;20088;-74
2024/04/05 07:05:11;;;;;;;20.65;5.25;;;12.40;99.90;;;;;;5037324;28;20059;-73
2024/04/05 07:07:37;;;;;;;25.63;5.28;;;12.50;99.90;;;;;;5045916;28;20485;-73
2024/04/05 07:10:04;;;;;;;25.95;5.50;;;12.60;99.90;;;;;;5047311;28;20043;-73
2024/04/05 07:12:30;;;;;;;20.50;5.40;;;12.60;99.90;;;;;;5040618;28;20972;-73
2024/04/05 07:14:55;;;;;;;16.67;4.43;;;12.60;99.90;;;;;;5045109;28;20117;-72
2024/04/05 07:17:21;;;;;;;22.40;4.72;;;12.70;99.90;;;;;;5044197;28;21055;-72
2024/04/05 07:19:47;;;;;;;21.15;4.60;;;12.80;99.90;;;;;;5040652;28;20060;-73
2024/04/05 07:22:15;;;;;;;26.23;4.85;;;12.80;99.90;;;;;;5045221;28;20079;-72
2024/04/05 07:24:43;;;;;;;20.65;4.97;;;12.90;99.90;;;;;;5057112;28;20412;-73
2024/04/05 07:27:09;;;;;;;18.88;4.68;;;13.00;99.90;;;;;;5047547;28;20477;-73
2024/04/05 07:29:36;;;;;;;19.77;4.72;;;13.10;99.90;;;;;;5041877;28;20037;-73
2024/04/05 07:32:04;;;;;;;17.38;5.00;;;13.10;99.90;;;;;;5044722;28;20041;-74
2024/04/05 07:34:30;;;;;;;22.42;6.05;;;13.20;99.90;;;;;;5043733;28;20048;-74
2024/04/05 07:36:56;;;;;;;20.90;5.30;;;13.20;99.90;;;;;;5043443;28;20048;-74
2024/04/05 07:39:22;;;;;;;18.02;5.25;;;13.40;99.90;;;;;;5045903;28;20128;-73
2024/04/05 07:41:47;;;;;;;19.83;5.20;;;13.40;99.90;;;;;;5044804;28;20488;-74
2024/04/05 07:44:13;;;;;;;18.30;5.05;;;13.50;99.90;;;;;;5053318;28;20045;-74
2024/04/05 07:46:41;;;;;;;18.58;5.60;;;13.60;99.90;;;;;;5042955;28;20129;-75
2024/04/05 07:49:07;;;;;;;17.58;4.95;;;13.60;99.90;;;;;;5045148;28;20087;-75
2024/04/05 07:51:33;;;;;;;22.08;7.80;;;13.70;99.90;;;;;;5042561;28;20480;-75
2024/04/05 07:53:58;;;;;;;16.90;5.18;;;13.80;99.90;;;;;;5042899;28;20091;-75
2024/04/05 07:56:27;;;;;;;15.98;4.65;;;13.90;99.90;;;;;;5041877;28;20037;-75
2024/04/05 07:58:52;;;;;;;17.92;5.03;;;14.00;99.90;;;;;;5043328;28;20037;-75
2024/04/05 08:01:18;;;;;;;16.02;4.63;;;14.10;99.90;;;;;;5037408;28;20094;-75
2024/04/05 08:03:44;;;;;;;16.70;4.35;;;14.20;99.90;;;;;;5044715;28;20052;-75
2024/04/05 08:06:10;;;;;;;18.02;5.10;;;14.20;99.90;;;;;;5039028;28;20048;-75
2024/04/05 08:08:36;;;;;;;13.55;4.53;;;14.30;99.90;;;;;;5041125;28;20552;-75
2024/04/05 08:11:03;;;;;;;14.98;4.18;;;14.30;99.90;;;;;;5049746;28;20037;-74
2024/04/05 08:13:29;;;;;;;14.63;4.18;;;14.30;99.90;;;;;;5027884;28;20117;-74
2024/04/05 08:15:55;;;;;;;13.60;4.00;;;14.40;99.90;;;;;;5041048;28;20048;-75
2024/04/05 08:18:21;;;;;;;14.43;4.38;;;14.40;99.90;;;;;;5028203;28;20124;-74
2024/04/05 08:20:47;;;;;;;11.95;3.50;;;14.40;99.90;;;;;;5042065;28;20126;-75
2024/04/05 08:23:13;;;;;;;12.15;3.95;;;14.50;99.90;;;;;;5041954;28;20549;-75
2024/04/05 08:25:39;;;;;;;13.15;3.58;;;14.50;99.90;;;;;;5043035;28;20037;-75
2024/04/05 08:28:05;;;;;;;15.63;3.85;;;14.50;99.90;;;;;;5040889;28;20048;-74
2024/04/05 08:30:31;;;;;;;16.05;4.22;;;14.60;99.90;;;;;;5041760;28;20029;-74
2024/04/05 08:32:57;;;;;;;13.27;3.72;;;14.70;99.90;;;;;;5041724;28;20067;-74
2024/04/05 08:35:22;;;;;;;15.23;3.95;;;14.70;99.90;;;;;;5044618;28;20519;-74
2024/04/05 08:37:48;;;;;;;15.57;3.55;;;14.80;99.90;;;;;;5041330;28;20072;-74
2024/04/05 08:40:14;;;;;;;12.48;3.88;;;14.80;99.90;;;;;;5042636;28;20040;-76
2024/04/05 08:42:43;;;;;;;13.70;3.40;;;14.80;99.90;;;;;;5040891;28;20039;-76
2024/04/05 08:45:11;;;;;;;16.00;3.50;;;14.90;99.90;;;;;;5061951;28;20037;-75
2024/04/05 08:47:38;;;;;;;12.77;3.58;;;14.80;99.90;;;;;;5042968;28;20570;-75
2024/04/05 08:50:08;;;;;;;15.27;3.72;;;14.80;99.90;;;;;;5044787;28;20041;-75
2024/04/05 08:52:34;;;;;;;13.65;4.05;;;14.80;99.90;;;;;;5038049;28;20091;-75
2024/04/05 08:55:02;;;;;;;13.70;4.13;;;14.80;99.90;;;;;;5044901;28;20037;-76
2024/04/05 08:57:33;;;;;;;9.55;3.22;;;14.70;99.90;;;;;;5038317;28;20037;-76
2024/04/05 08:59:58;;;;;;;17.67;3.97;;;14.70;99.90;;;;;;5032480;28;20047;-77
2024/04/05 09:02:25;;;;;;;13.63;3.75;;;14.60;99.90;;;;;;5037900;28;20120;-78
2024/04/05 09:04:53;;;;;;;9.68;3.35;;;14.50;99.90;;;;;;5045429;28;20069;-77
2024/04/05 09:07:22;;;;;;;13.57;3.53;;;14.30;99.90;;;;;;5042581;28;20136;-73
2024/04/05 09:09:48;;;;;;;18.05;4.13;;;14.20;99.90;;;;;;5044645;28;20082;-76
2024/04/05 09:12:19;;;;;;;15.63;3.63;;;14.10;99.90;;;;;;5043359;28;20040;-77
2024/04/05 09:14:45;;;;;;;13.25;4.00;;;13.90;99.90;;;;;;5047102;28;20503;-78
2024/04/05 09:17:15;;;;;;;20.27;4.45;;;13.80;99.90;;;;;;5045642;28;20291;-78
2024/04/05 09:19:41;;;;;;;13.13;4.28;;;13.80;99.90;;;;;;5046402;28;20193;-78
2024/04/05 09:22:07;;;;;;;11.52;4.57;;;13.70;99.90;;;;;;5046472;28;20406;-76
2024/04/05 09:24:34;;;;;;;14.52;4.13;;;13.70;99.90;;;;;;5047911;28;20072;-76
2024/04/05 09:27:03;;;;;;;17.55;4.10;;;13.60;99.90;;;;;;5044265;28;20056;-77
2024/04/05 09:29:32;;;;;;;15.30;4.15;;;13.60;99.90;;;;;;5044922;28;20041;-78
2024/04/05 09:31:57;;;;;;;15.90;4.45;;;13.60;99.90;;;;;;5047072;28;20093;-78
2024/04/05 09:34:25;;;;;;;17.15;3.85;;;13.60;99.90;;;;;;5043849;28;20029;-77
2024/04/05 09:36:52;;;;;;;15.73;4.38;;;13.60;99.90;;;;;;5040554;28;20045;-77
2024/04/05 09:39:21;;;;;;;13.38;4.38;;;13.60;99.90;;;;;;5044907;28;20111;-78
2024/04/05 09:41:48;;;;;;;15.40;4.65;;;13.60;99.90;;;;;;5067566;28;20040;-78
2024/04/05 09:44:17;;;;;;;14.40;4.68;;;13.50;99.90;;;;;;5036220;28;20620;-78
2024/04/05 09:46:43;;;;;;;14.40;4.68;;;13.50;99.90;;;;;;5050747;28;20361;-78
2024/04/05 09:49:12;;;;;;;14.27;4.28;;;13.50;99.90;;;;;;5048635;28;20075;-78
2024/04/05 09:51:45;;;;;;;17.42;5.15;;;13.50;99.90;;;;;;5051763;28;20029;-75
2024/04/05 09:54:12;;;;;;;17.20;5.20;;;13.40;99.90;;;;;;5042323;28;20041;-73
2024/04/05 09:56:39;;;;;;;17.70;4.72;;;13.40;99.90;;;;;;5050034;28;20493;-74
2024/04/05 09:59:18;;;;;;;13.70;4.90;;;13.40;99.90;;;;;;5045686;28;20037;-74
2024/04/05 10:01:46;;;;;;;15.40;4.72;;;13.30;99.90;;;;;;5061733;28;20029;-74
2024/04/05 10:04:15;;;;;;;17.83;4.95;;;13.30;99.90;;;;;;5043352;28;20211;-74
2024/04/05 10:06:42;;;;;;;17.92;5.00;;;13.30;99.90;;;;;;5054863;28;20102;-74
2024/04/05 10:09:15;;;;;;;16.95;5.50;;;13.30;99.90;;;;;;5048269;28;20029;-74
2024/04/05 10:11:45;;;;;;;16.88;5.63;;;13.30;99.90;;;;;;5043017;28;20044;-72
2024/04/05 10:14:31;;;;;;;21.67;5.43;;;13.30;99.90;;;;;;5049384;28;20046;-70
2024/04/05 10:17:11;;;;;;;22.38;5.35;;;13.30;99.90;;;;;;5046294;28;20051;-71
2024/04/05 10:19:38;;;;;;;15.32;4.93;;;13.30;99.90;;;;;;5046453;28;20049;-71
2024/04/05 10:22:04;;;;;;;20.35;5.95;;;13.30;99.90;;;;;;5043665;28;20044;-71
2024/04/05 10:24:30;;;;;;;21.17;5.32;;;13.30;99.90;;;;;;5044389;28;20082;-72
2024/04/05 10:26:56;;;;;;;16.75;5.28;;;13.30;99.90;;;;;;5043473;28;20151;-72
2024/04/05 10:29:23;;;;;;;20.25;5.43;;;13.30;99.90;;;;;;5044341;28;20496;-73
2024/04/05 10:31:58;;;;;;;17.15;5.20;;;13.40;99.90;;;;;;5047506;28;20516;-73
2024/04/05 10:34:24;;;;;;;17.63;5.80;;;13.40;99.90;;;;;;5027917;28;20032;-73
2024/04/05 10:36:50;;;;;;;18.65;5.70;;;13.40;99.90;;;;;;5045486;28;20059;-74
2024/04/05 10:39:19;;;;;;;17.88;6.22;;;13.40;99.90;;;;;;5048340;28;20386;-75
2024/04/05 10:41:49;;;;;;;21.17;6.53;;;13.30;99.90;;;;;;5038260;28;20045;-76
2024/04/05 10:44:17;;;;;;;15.50;5.50;;;13.50;99.90;;;;;;5047085;28;20082;-75
2024/04/05 10:46:47;;;;;;;17.58;5.05;;;13.50;99.90;;;;;;5044892;28;20473;-75
2024/04/05 10:49:15;;;;;;;12.88;4.80;;;13.50;99.90;;;;;;5064723;28;20080;-75
2024/04/05 10:51:42;;;;;;;14.55;4.85;;;13.60;99.90;;;;;;5046647;28;20039;-74
2024/04/05 10:54:11;;;;;;;16.15;4.93;;;13.70;99.90;;;;;;5048412;28;20546;-74
2024/04/05 10:56:42;;;;;;;18.20;5.38;;;13.70;99.90;;;;;;5047709;28;20047;-75
2024/04/05 10:59:11;;;;;;;14.55;4.20;;;13.80;99.90;;;;;;5051292;28;20048;-76
2024/04/05 11:01:38;;;;;;;18.25;5.75;;;13.80;99.90;;;;;;5052783;28;20370;-76
2024/04/05 11:04:05;;;;;;;17.45;4.45;;;13.90;99.90;;;;;;5048176;28;20048;-74
2024/04/05 11:06:32;;;;;;;14.68;5.03;;;14.00;99.90;;;;;;5047766;28;20071;-74
2024/04/05 11:08:58;;;;;;;14.02;4.82;;;14.20;99.90;;;;;;5049055;28;20040;-74
2024/04/05 11:11:26;;;;;;;12.73;3.78;;;14.30;99.90;;;;;;5046377;28;20048;-74
2024/04/05 11:14:05;;;;;;;12.75;3.72;;;14.30;99.90;;;;;;5069000;28;20041;-73
2024/04/05 11:16:32;;;;;;;11.20;3.42;;;14.40;99.90;;;;;;5047945;28;20499;-74
2024/04/05 11:18:58;;;;;;;11.18;3.05;;;14.30;99.90;;;;;;5070825;28;20039;-73
2024/04/05 11:21:24;;;;;;;10.55;3.15;;;14.30;99.90;;;;;;5044378;28;20033;-74
2024/04/05 11:23:55;;;;;;;9.05;2.65;;;14.30;99.90;;;;;;5055900;28;20120;-74
2024/04/05 11:26:28;;;;;;;9.20;2.50;;;14.30;99.90;;;;;;5038565;28;20072;-74
2024/04/05 11:28:54;;;;;;;8.55;2.30;;;14.20;99.90;;;;;;5053096;28;20109;-74
2024/04/05 11:31:19;;;;;;;9.90;2.85;;;14.20;99.90;;;;;;5063210;28;20054;-73
2024/04/05 11:33:45;;;;;;;10.77;2.90;;;14.20;99.90;;;;;;5064917;28;20058;-74
2024/04/05 11:36:11;;;;;;;9.25;3.05;;;14.30;99.90;;;;;;5029904;28;20024;-74
2024/04/05 11:38:37;;;;;;;8.80;2.80;;;14.30;99.90;;;;;;5046686;28;20032;-74
2024/04/05 11:41:03;;;;;;;9.50;2.90;;;14.30;99.90;;;;;;5050206;28;20045;-74
2024/04/05 11:43:29;;;;;;;8.50;2.33;;;14.30;99.90;;;;;;5045293;28;20048;-74
2024/04/05 11:45:55;;;;;;;9.25;2.17;;;14.40;99.90;;;;;;5043400;28;20044;-74
2024/04/05 11:48:23;;;;;;;8.93;2.80;;;14.30;99.90;;;;;;5051272;28;20048;-75
2024/04/05 11:50:50;;;;;;;9.70;2.78;;;14.40;99.90;;;;;;5048314;28;20045;-74
2024/04/05 11:53:16;;;;;;;6.55;2.30;;;14.40;99.90;;;;;;5049879;28;20076;-73
2024/04/05 11:55:41;;;;;;;9.82;2.35;;;14.50;99.90;;;;;;5067017;28;20072;-73
2024/04/05 11:58:07;;;;;;;6.50;2.22;;;14.40;99.90;;;;;;5044618;28;20071;-74
2024/04/05 12:00:33;;;;;;;8.25;2.53;;;14.50;99.90;;;;;;5049329;28;20040;-73
2024/04/05 12:02:59;;;;;;;7.85;2.20;;;14.50;99.90;;;;;;5045603;28;20409;-74
2024/04/05 12:05:25;;;;;;;9.48;2.22;;;14.40;99.90;;;;;;5050138;28;20044;-73
2024/04/05 12:07:50;;;;;;;10.02;2.60;;;14.40;99.90;;;;;;5061532;28;20029;-73
2024/04/05 12:10:17;;;;;;;6.10;2.22;;;14.40;99.90;;;;;;5043102;28;20395;-73
2024/04/05 12:12:43;;;;;;;5.65;2.38;;;14.30;99.90;;;;;;5040521;28;20037;-73
2024/04/05 12:15:08;;;;;;;9.05;2.85;;;14.40;99.90;;;;;;5041682;28;20090;-73
2024/04/05 12:17:36;;;;;;;7.47;2.08;;;14.30;99.90;;;;;;5066933;28;20408;-72
2024/04/05 12:20:06;;;;;;;10.13;3.05;;;14.30;99.90;;;;;;5067156;28;20072;-73
2024/04/05 12:22:31;;;;;;;9.45;3.05;;;14.20;99.90;;;;;;5064711;28;20098;-72
2024/04/05 12:24:57;;;;;;;9.43;2.97;;;14.20;99.90;;;;;;5061707;28;20037;-71
2024/04/05 12:27:23;;;;;;;14.20;3.47;;;14.10;99.90;;;;;;5049168;28;20037;-71
2024/04/05 12:29:49;;;;;;;8.55;3.15;;;14.10;99.90;;;;;;5063958;28;20094;-72
2024/04/05 12:32:15;;;;;;;10.32;3.08;;;14.10;99.90;;;;;;5050806;28;20049;-72
2024/04/05 12:34:41;;;;;;;11.63;2.60;;;14.10;99.90;;;;;;5047344;28;20086;-72